Time;durP1;ratioP1;P1;durP2;ratioP2;P2;SDS_P1;SDS_P2;PMS_P1;PMS_P2;Temp;Humidity;BMP_temperature;BMP_pressure;BME280_temperature;BME280_humidity;BME280_pressure;Samples;Min_cycle;Max_cycle;Signal;HPM_P1;HPM_P2
2023/02/27 00:00:31;;;;;;;1.83;1.30;;;3.30;50.10;;;;;;5037818;28;20255;-59
2023/02/27 00:02:57;;;;;;;1.57;1.30;;;3.10;49.90;;;;;;5036015;28;20200;-57
2023/02/27 00:05:23;;;;;;;1.20;1.10;;;3.10;50.40;;;;;;5037865;28;20456;-57
2023/02/27 00:07:50;;;;;;;1.73;1.30;;;3.10;50.30;;;;;;5032325;28;20457;-57
2023/02/27 00:10:16;;;;;;;1.63;1.20;;;3.00;50.30;;;;;;5030222;28;20827;-57
2023/02/27 00:12:43;;;;;;;3.00;1.90;;;2.90;50.40;;;;;;5025202;28;20523;-57
2023/02/27 00:15:18;;;;;;;3.70;1.40;;;3.10;50.50;;;;;;5035563;28;20526;-58
2023/02/27 00:17:45;;;;;;;1.73;1.07;;;3.00;50.20;;;;;;5034143;28;20500;-56
2023/02/27 00:20:13;;;;;;;1.40;1.30;;;3.10;50.40;;;;;;5032590;28;20487;-57
2023/02/27 00:22:40;;;;;;;1.83;1.60;;;3.00;50.20;;;;;;5032853;28;20436;-56
2023/02/27 00:25:07;;;;;;;1.93;1.53;;;3.00;50.40;;;;;;5043000;28;20569;-57
2023/02/27 00:27:33;;;;;;;1.53;1.17;;;3.10;50.40;;;;;;5040861;28;20435;-57
2023/02/27 00:29:59;;;;;;;1.30;1.20;;;3.10;50.20;;;;;;5033481;28;20448;-57
2023/02/27 00:32:25;;;;;;;2.93;1.30;;;3.30;50.10;;;;;;5032154;28;20452;-57
2023/02/27 00:34:50;;;;;;;1.90;1.40;;;3.20;50.10;;;;;;5039959;28;20805;-55
2023/02/27 00:37:16;;;;;;;1.97;1.50;;;3.50;50.00;;;;;;5031958;28;20193;-57
2023/02/27 00:39:41;;;;;;;1.97;1.30;;;3.10;49.80;;;;;;5042199;28;20217;-56
2023/02/27 00:42:07;;;;;;;1.43;1.27;;;2.90;50.40;;;;;;5031639;28;20619;-57
2023/02/27 00:44:33;;;;;;;4.13;1.93;;;3.00;50.80;;;;;;5025694;28;20276;-57
2023/02/27 00:46:58;;;;;;;2.40;1.50;;;3.20;50.60;;;;;;5027528;28;20193;-57
2023/02/27 00:49:24;;;;;;;1.60;1.50;;;3.10;50.60;;;;;;5016722;28;20232;-57
2023/02/27 00:51:51;;;;;;;1.50;1.40;;;3.00;50.70;;;;;;5025599;28;20197;-57
2023/02/27 00:54:16;;;;;;;1.70;1.10;;;3.20;50.50;;;;;;5018886;28;20444;-57
2023/02/27 00:56:42;;;;;;;4.60;1.50;;;3.30;50.30;;;;;;5030483;28;20483;-57
2023/02/27 00:59:07;;;;;;;1.57;1.47;;;3.40;50.30;;;;;;5027746;28;20773;-58
2023/02/27 01:01:33;;;;;;;1.50;1.40;;;3.50;50.10;;;;;;5023595;28;20212;-57
2023/02/27 01:03:59;;;;;;;2.30;1.07;;;3.50;50.40;;;;;;5025348;28;20559;-57
2023/02/27 01:06:25;;;;;;;1.87;1.60;;;3.50;49.80;;;;;;5018021;28;21814;-57
2023/02/27 01:08:50;;;;;;;2.37;1.40;;;3.60;49.90;;;;;;5023831;28;20221;-57
2023/02/27 01:11:16;;;;;;;2.03;1.50;;;3.60;49.70;;;;;;5025497;28;20541;-57
2023/02/27 01:13:43;;;;;;;1.60;1.47;;;3.60;49.70;;;;;;5028327;28;20193;-57
2023/02/27 01:16:09;;;;;;;1.67;1.20;;;3.80;49.70;;;;;;5024618;28;20190;-57
2023/02/27 01:18:35;;;;;;;3.40;1.90;;;3.50;49.80;;;;;;5022808;28;20568;-57
2023/02/27 01:21:00;;;;;;;1.50;1.40;;;3.20;50.20;;;;;;5019993;28;20444;-57
2023/02/27 01:23:26;;;;;;;4.33;1.93;;;3.20;50.60;;;;;;5025828;28;20190;-58
2023/02/27 01:25:51;;;;;;;2.50;1.37;;;3.40;50.80;;;;;;5043724;28;20190;-57
2023/02/27 01:28:17;;;;;;;2.43;1.60;;;3.30;50.50;;;;;;5030883;28;20204;-57
2023/02/27 01:30:43;;;;;;;2.70;1.70;;;3.00;51.00;;;;;;5044038;28;20720;-57
2023/02/27 01:33:08;;;;;;;1.87;1.17;;;3.10;51.30;;;;;;5023895;28;20197;-57
2023/02/27 01:35:34;;;;;;;1.80;1.60;;;3.40;51.20;;;;;;5019305;28;20227;-57
2023/02/27 01:38:00;;;;;;;2.13;1.77;;;3.20;51.00;;;;;;5024491;28;20561;-56
2023/02/27 01:40:26;;;;;;;2.47;1.80;;;3.40;51.00;;;;;;5030886;28;20192;-57
2023/02/27 01:42:52;;;;;;;1.43;1.27;;;3.50;50.70;;;;;;5032712;28;20479;-57
2023/02/27 01:45:30;;;;;;;1.97;1.53;;;3.50;50.50;;;;;;5030417;28;20471;-58
2023/02/27 01:48:05;;;;;;;2.20;1.70;;;3.40;50.70;;;;;;5046980;28;20283;-58
2023/02/27 01:50:32;;;;;;;2.63;2.43;;;3.20;51.00;;;;;;5019548;28;20964;-58
2023/02/27 01:52:59;;;;;;;2.20;2.00;;;2.90;51.60;;;;;;5031323;28;20416;-57
2023/02/27 01:55:27;;;;;;;1.90;1.20;;;2.80;51.90;;;;;;5029565;28;20444;-57
2023/02/27 01:57:54;;;;;;;2.30;2.10;;;2.90;52.30;;;;;;5023068;28;20440;-57
2023/02/27 02:00:20;;;;;;;4.23;1.77;;;2.60;52.70;;;;;;5028261;28;20873;-57
2023/02/27 02:03:07;;;;;;;1.63;1.50;;;2.70;52.90;;;;;;5040751;28;20443;-58
2023/02/27 02:05:33;;;;;;;3.77;1.97;;;2.80;52.80;;;;;;5038419;28;20412;-57
2023/02/27 02:07:59;;;;;;;1.80;1.70;;;2.60;53.00;;;;;;5033755;28;20450;-57
2023/02/27 02:10:25;;;;;;;2.00;1.70;;;2.70;53.10;;;;;;5037412;28;20453;-56
2023/02/27 02:12:51;;;;;;;4.33;2.10;;;2.60;53.10;;;;;;5034599;28;20425;-57
2023/02/27 02:15:17;;;;;;;1.80;1.50;;;2.60;53.20;;;;;;5029338;28;20201;-56
2023/02/27 02:17:52;;;;;;;2.03;1.87;;;2.60;53.70;;;;;;5035593;28;20196;-57
2023/02/27 02:20:23;;;;;;;1.57;1.43;;;2.70;53.60;;;;;;5048209;28;20482;-57
2023/02/27 02:23:04;;;;;;;1.80;1.67;;;2.40;53.60;;;;;;5036003;28;20475;-57
2023/02/27 02:25:54;;;;;;;2.70;1.83;;;2.30;54.10;;;;;;5031677;28;20443;-57
2023/02/27 02:28:42;;;;;;;3.60;1.97;;;2.50;54.00;;;;;;5032942;28;20485;-57
2023/02/27 02:31:33;;;;;;;2.10;1.67;;;2.40;54.10;;;;;;5029131;28;20475;-57
2023/02/27 02:34:36;;;;;;;3.97;1.90;;;2.50;54.00;;;;;;5044939;28;20514;-59
2023/02/27 02:37:51;;;;;;;4.47;1.53;;;2.50;53.20;;;;;;5037901;28;20451;-57
2023/02/27 02:40:16;;;;;;;2.57;2.00;;;2.70;53.60;;;;;;5023263;28;20551;-57
2023/02/27 02:43:17;;;;;;;2.47;1.70;;;2.80;53.20;;;;;;5035638;28;20440;-58
2023/02/27 02:45:58;;;;;;;4.40;1.53;;;2.70;53.10;;;;;;5003265;28;20193;-57
2023/02/27 02:48:33;;;;;;;1.63;1.53;;;2.60;53.40;;;;;;5021508;28;20528;-58
2023/02/27 02:51:13;;;;;;;1.70;1.60;;;2.20;53.90;;;;;;5033098;28;20446;-56
2023/02/27 02:53:44;;;;;;;5.07;1.30;;;2.60;54.10;;;;;;5034600;28;20440;-58
2023/02/27 02:56:23;;;;;;;2.43;1.57;;;2.50;53.70;;;;;;5021869;28;20435;-57
2023/02/27 02:58:52;;;;;;;1.83;1.60;;;2.60;53.70;;;;;;5032411;28;20541;-57
2023/02/27 03:01:28;;;;;;;1.70;1.60;;;2.80;53.50;;;;;;5026129;28;20499;-57
2023/02/27 03:04:11;;;;;;;3.17;2.13;;;2.80;53.20;;;;;;5023490;28;20449;-57
2023/02/27 03:06:42;;;;;;;2.20;1.83;;;2.80;53.10;;;;;;5025317;28;20451;-57
2023/02/27 03:09:13;;;;;;;2.70;1.90;;;2.90;53.90;;;;;;5025999;28;20440;-57
2023/02/27 03:11:42;;;;;;;4.30;2.10;;;3.00;53.10;;;;;;5027395;28;20440;-58
2023/02/27 03:14:22;;;;;;;5.30;2.13;;;3.00;52.90;;;;;;5026040;28;20508;-57
2023/02/27 03:16:52;;;;;;;3.23;2.20;;;3.10;52.60;;;;;;5028158;28;20813;-56
2023/02/27 03:19:30;;;;;;;1.60;1.50;;;3.30;52.40;;;;;;5023023;28;20491;-57
2023/02/27 03:22:04;;;;;;;2.90;1.60;;;3.20;52.30;;;;;;5033007;28;20952;-57
2023/02/27 03:24:40;;;;;;;3.13;1.97;;;3.00;52.70;;;;;;5037160;28;20446;-57
2023/02/27 03:27:08;;;;;;;3.33;2.10;;;3.10;53.40;;;;;;5029866;28;20439;-57
2023/02/27 03:29:39;;;;;;;2.30;2.10;;;2.90;52.70;;;;;;5026854;28;20440;-57
2023/02/27 03:32:30;;;;;;;2.13;1.80;;;2.90;53.10;;;;;;5038325;28;20478;-58
2023/02/27 03:34:56;;;;;;;3.90;2.10;;;2.90;53.30;;;;;;5026877;28;22282;-57
2023/02/27 03:37:41;;;;;;;2.63;2.43;;;3.10;53.00;;;;;;5032329;28;20436;-57
2023/02/27 03:40:34;;;;;;;2.27;2.00;;;3.40;52.60;;;;;;5031638;28;20319;-57
2023/02/27 03:43:00;;;;;;;3.00;2.17;;;3.10;52.50;;;;;;5036571;28;20531;-57
2023/02/27 03:45:31;;;;;;;1.93;1.83;;;3.10;52.40;;;;;;5041878;28;20546;-58
2023/02/27 03:47:57;;;;;;;4.13;1.70;;;3.10;52.60;;;;;;5045349;28;21322;-57
2023/02/27 03:50:22;;;;;;;4.03;2.17;;;3.20;52.40;;;;;;5039521;28;20449;-58
2023/02/27 03:52:49;;;;;;;3.97;2.27;;;3.40;52.20;;;;;;5039504;28;20930;-57
2023/02/27 03:55:22;;;;;;;2.40;1.63;;;3.50;51.70;;;;;;5027512;28;20233;-58
2023/02/27 03:57:49;;;;;;;2.63;2.43;;;3.60;51.50;;;;;;5031998;28;20484;-58
2023/02/27 04:00:18;;;;;;;3.03;2.20;;;3.50;52.30;;;;;;5044214;28;20484;-58
2023/02/27 04:02:46;;;;;;;3.23;2.93;;;3.40;51.80;;;;;;5039351;28;20446;-58
2023/02/27 04:05:11;;;;;;;2.50;1.97;;;3.30;52.10;;;;;;5028066;28;20432;-58
2023/02/27 04:07:46;;;;;;;2.20;2.00;;;3.20;52.40;;;;;;5037468;28;21019;-58
2023/02/27 04:10:29;;;;;;;2.70;2.03;;;3.50;52.30;;;;;;5029095;28;20272;-58
2023/02/27 04:13:10;;;;;;;1.90;1.70;;;3.60;51.70;;;;;;5029523;28;20458;-58
2023/02/27 04:16:14;;;;;;;2.60;2.20;;;3.20;51.60;;;;;;5034267;28;20443;-58
2023/02/27 04:18:45;;;;;;;2.77;1.90;;;3.40;52.30;;;;;;5013408;28;20484;-57
2023/02/27 04:21:38;;;;;;;2.13;1.97;;;3.30;52.10;;;;;;5033462;28;20522;-58
2023/02/27 04:24:21;;;;;;;2.30;1.90;;;3.20;52.10;;;;;;5031213;28;20551;-57
2023/02/27 04:26:58;;;;;;;2.37;2.17;;;3.30;52.30;;;;;;5023462;28;20451;-58
2023/02/27 04:29:47;;;;;;;2.10;2.00;;;3.30;52.30;;;;;;5031516;28;20530;-58
2023/02/27 04:32:20;;;;;;;5.47;2.87;;;3.40;52.00;;;;;;5028857;28;20472;-58
2023/02/27 04:34:57;;;;;;;3.10;1.97;;;3.50;51.80;;;;;;5028685;28;20458;-58
2023/02/27 04:37:49;;;;;;;4.20;2.37;;;3.40;51.70;;;;;;5021354;28;20439;-58
2023/02/27 04:40:23;;;;;;;2.70;2.17;;;3.40;52.10;;;;;;5025059;28;20994;-58
2023/02/27 04:42:55;;;;;;;2.00;1.80;;;3.60;52.30;;;;;;5023045;28;20539;-57
2023/02/27 04:45:23;;;;;;;4.90;3.03;;;3.80;51.20;;;;;;5020093;28;20432;-58
2023/02/27 04:47:56;;;;;;;2.60;2.40;;;3.90;50.70;;;;;;5026970;28;20444;-58
2023/02/27 04:50:53;;;;;;;3.37;2.47;;;3.70;50.70;;;;;;5021831;28;20445;-58
2023/02/27 04:53:26;;;;;;;2.63;2.43;;;3.70;51.10;;;;;;5022204;28;20535;-58
2023/02/27 04:56:06;;;;;;;3.13;2.00;;;3.50;50.90;;;;;;5021128;28;22869;-58
2023/02/27 04:58:39;;;;;;;2.30;2.10;;;3.20;51.80;;;;;;5021413;28;20553;-56
2023/02/27 05:01:32;;;;;;;3.67;2.27;;;3.20;52.00;;;;;;5037500;28;20474;-57
2023/02/27 05:03:58;;;;;;;2.47;2.20;;;3.10;52.30;;;;;;5018615;28;20506;-58
2023/02/27 05:06:30;;;;;;;2.40;2.20;;;3.20;52.40;;;;;;5024092;28;20453;-58
2023/02/27 05:09:01;;;;;;;3.20;2.03;;;3.40;52.10;;;;;;5021967;28;20456;-58
2023/02/27 05:12:02;;;;;;;2.37;2.00;;;3.60;51.60;;;;;;5020532;28;20501;-58
2023/02/27 05:14:35;;;;;;;3.00;2.10;;;3.80;51.00;;;;;;5010834;28;21102;-58
2023/02/27 05:17:08;;;;;;;4.30;2.33;;;3.90;50.80;;;;;;5023150;28;20822;-57
2023/02/27 05:19:37;;;;;;;2.63;1.90;;;3.90;50.50;;;;;;5020340;28;20596;-58
2023/02/27 05:22:18;;;;;;;3.40;2.43;;;3.90;50.30;;;;;;5027160;28;20515;-58
2023/02/27 05:25:06;;;;;;;3.10;2.40;;;3.90;50.30;;;;;;5035165;28;20456;-58
2023/02/27 05:27:45;;;;;;;3.43;2.20;;;3.90;50.20;;;;;;5027553;28;20510;-57
2023/02/27 05:30:23;;;;;;;4.40;3.00;;;3.60;50.40;;;;;;5022531;28;20448;-58
2023/02/27 05:33:08;;;;;;;3.00;2.50;;;3.60;50.70;;;;;;5025462;28;20452;-58
2023/02/27 05:35:44;;;;;;;5.60;2.90;;;3.60;50.80;;;;;;5029728;28;20443;-57
2023/02/27 05:38:26;;;;;;;5.37;2.80;;;3.70;50.90;;;;;;5014978;28;20509;-57
2023/02/27 05:40:57;;;;;;;3.97;2.47;;;3.60;50.80;;;;;;5028925;28;20851;-56
2023/02/27 05:43:35;;;;;;;3.47;2.53;;;3.60;50.80;;;;;;5020191;28;20474;-58
2023/02/27 05:46:10;;;;;;;2.90;2.43;;;3.50;51.10;;;;;;5020679;28;20462;-58
2023/02/27 05:48:41;;;;;;;2.83;2.60;;;3.50;51.20;;;;;;5015478;28;20443;-57
2023/02/27 05:51:10;;;;;;;2.43;2.23;;;3.50;51.30;;;;;;5022647;28;20450;-58
2023/02/27 05:53:41;;;;;;;2.90;2.70;;;3.50;51.20;;;;;;5026792;28;20444;-58
2023/02/27 05:56:10;;;;;;;3.37;2.83;;;3.60;51.30;;;;;;5028489;28;20440;-58
2023/02/27 05:58:53;;;;;;;2.07;1.97;;;3.60;51.10;;;;;;5037587;28;20558;-57
2023/02/27 06:01:18;;;;;;;4.17;2.47;;;3.70;50.90;;;;;;5037186;28;21114;-58
2023/02/27 06:03:44;;;;;;;3.00;2.43;;;3.80;50.70;;;;;;5031488;28;20443;-58
2023/02/27 06:06:16;;;;;;;3.60;2.17;;;3.40;51.10;;;;;;5038845;28;20303;-58
2023/02/27 06:08:43;;;;;;;3.67;2.90;;;3.40;51.60;;;;;;5028664;28;20278;-57
2023/02/27 06:11:08;;;;;;;3.37;2.80;;;3.40;51.60;;;;;;5025134;28;20527;-58
2023/02/27 06:13:34;;;;;;;3.97;2.63;;;3.50;51.70;;;;;;5032737;28;20523;-57
2023/02/27 06:15:59;;;;;;;2.33;2.20;;;3.40;51.50;;;;;;5035238;28;20607;-58
2023/02/27 06:18:25;;;;;;;3.60;2.50;;;3.20;51.90;;;;;;5031499;28;20197;-59
2023/02/27 06:20:50;;;;;;;2.43;2.23;;;3.30;52.60;;;;;;5034949;28;20196;-59
2023/02/27 06:23:17;;;;;;;2.77;2.57;;;3.40;54.60;;;;;;5034035;28;20234;-59
2023/02/27 06:25:42;;;;;;;2.90;2.40;;;3.70;53.70;;;;;;5039823;28;20596;-59
2023/02/27 06:28:09;;;;;;;4.30;2.47;;;3.80;52.30;;;;;;5031444;28;20443;-59
2023/02/27 06:30:35;;;;;;;2.73;2.53;;;4.00;52.20;;;;;;5025374;28;20693;-59
2023/02/27 06:33:00;;;;;;;2.60;2.40;;;4.10;51.80;;;;;;5026314;28;20439;-59
2023/02/27 06:35:28;;;;;;;2.63;2.43;;;4.30;52.40;;;;;;5035084;28;21002;-59
2023/02/27 06:37:54;;;;;;;2.83;2.53;;;4.50;51.30;;;;;;5017451;28;20201;-59
2023/02/27 06:40:20;;;;;;;4.00;2.20;;;4.60;50.50;;;;;;5018402;28;20981;-59
2023/02/27 06:42:46;;;;;;;3.70;2.50;;;4.80;50.60;;;;;;5021719;28;20543;-59
2023/02/27 06:45:13;;;;;;;2.43;2.23;;;5.00;50.00;;;;;;5029933;28;20295;-59
2023/02/27 06:47:40;;;;;;;4.30;2.70;;;5.00;49.50;;;;;;5020004;28;20192;-59
2023/02/27 06:50:06;;;;;;;3.27;2.63;;;5.00;48.80;;;;;;5021397;28;20803;-59
2023/02/27 06:52:32;;;;;;;2.63;2.20;;;4.80;48.50;;;;;;5030358;28;20469;-59
2023/02/27 06:54:58;;;;;;;2.90;2.60;;;4.80;48.80;;;;;;5031775;28;20938;-59
2023/02/27 06:57:24;;;;;;;3.67;2.73;;;4.90;49.80;;;;;;5025196;28;20280;-59
2023/02/27 06:59:50;;;;;;;3.83;3.50;;;5.00;48.80;;;;;;5015340;28;20492;-59
2023/02/27 07:02:16;;;;;;;2.67;2.33;;;5.20;48.40;;;;;;5039287;28;20303;-59
2023/02/27 07:04:42;;;;;;;2.83;2.40;;;5.30;48.10;;;;;;5016789;28;20198;-58
2023/02/27 07:07:09;;;;;;;4.30;2.73;;;5.50;47.70;;;;;;5026281;28;20487;-59
2023/02/27 07:09:35;;;;;;;2.80;2.10;;;5.70;47.50;;;;;;5030195;28;20436;-58
2023/02/27 07:12:01;;;;;;;5.90;2.30;;;5.90;46.70;;;;;;5039560;28;20435;-59
2023/02/27 07:14:27;;;;;;;2.50;2.20;;;5.90;46.30;;;;;;5036592;28;20431;-59
2023/02/27 07:16:53;;;;;;;6.17;2.43;;;6.10;46.60;;;;;;5030601;28;20851;-59
2023/02/27 07:19:19;;;;;;;5.33;2.60;;;6.20;46.00;;;;;;5028941;28;20235;-57
2023/02/27 07:21:45;;;;;;;5.23;2.47;;;6.60;45.50;;;;;;5037049;28;20263;-58
2023/02/27 07:24:10;;;;;;;4.83;3.00;;;6.70;44.50;;;;;;5025815;28;20530;-56
2023/02/27 07:26:36;;;;;;;6.67;2.50;;;6.40;44.30;;;;;;5021954;28;20194;-57
2023/02/27 07:29:03;;;;;;;3.40;2.40;;;6.10;44.50;;;;;;5018971;28;20198;-57
2023/02/27 07:31:28;;;;;;;5.90;2.33;;;5.90;45.10;;;;;;5027228;28;20472;-57
2023/02/27 07:33:54;;;;;;;2.70;2.30;;;6.10;45.50;;;;;;5033462;28;20511;-58
2023/02/27 07:36:20;;;;;;;3.10;2.30;;;6.00;45.10;;;;;;5039326;28;20192;-57
2023/02/27 07:38:46;;;;;;;6.63;2.50;;;5.80;45.30;;;;;;5035770;28;20927;-57
2023/02/27 07:41:11;;;;;;;2.83;2.10;;;5.80;46.10;;;;;;5039116;28;20443;-58
2023/02/27 07:43:37;;;;;;;3.37;2.17;;;5.80;45.20;;;;;;5029700;28;20186;-57
2023/02/27 07:46:03;;;;;;;2.60;2.17;;;5.80;45.50;;;;;;5028716;28;20677;-56
2023/02/27 07:48:32;;;;;;;2.80;2.40;;;5.80;45.40;;;;;;5032146;28;20242;-57
2023/02/27 07:50:59;;;;;;;2.93;2.20;;;5.90;45.40;;;;;;5033097;28;20451;-56
2023/02/27 07:53:25;;;;;;;3.80;2.47;;;6.00;45.00;;;;;;5032869;28;20451;-57
2023/02/27 07:55:51;;;;;;;3.43;1.93;;;6.10;45.00;;;;;;5035385;28;20452;-57
2023/02/27 07:58:17;;;;;;;3.20;2.50;;;6.30;45.10;;;;;;5026378;28;20817;-51
2023/02/27 08:00:42;;;;;;;3.40;2.10;;;6.30;44.60;;;;;;5026314;28;20452;-50
2023/02/27 08:03:08;;;;;;;2.17;1.90;;;6.20;44.20;;;;;;5030444;28;20242;-51
2023/02/27 08:05:34;;;;;;;2.57;2.33;;;6.30;44.30;;;;;;5033148;28;20200;-52
2023/02/27 08:08:00;;;;;;;2.53;2.33;;;6.10;44.10;;;;;;5035795;28;20641;-54
2023/02/27 08:10:26;;;;;;;5.30;2.20;;;6.10;44.60;;;;;;5034513;28;20809;-52
2023/02/27 08:12:52;;;;;;;2.57;2.30;;;6.40;44.50;;;;;;5032226;28;20190;-51
2023/02/27 08:15:17;;;;;;;2.40;2.00;;;6.50;43.80;;;;;;5031774;28;20193;-52
2023/02/27 08:17:45;;;;;;;2.93;2.27;;;6.60;43.40;;;;;;5032385;28;20193;-53
2023/02/27 08:20:12;;;;;;;2.40;2.03;;;6.80;43.50;;;;;;5032473;28;20233;-53
2023/02/27 08:22:38;;;;;;;3.03;2.30;;;6.70;43.20;;;;;;5030917;28;20444;-50
2023/02/27 08:25:06;;;;;;;3.53;2.37;;;6.70;43.90;;;;;;5032180;28;20431;-53
2023/02/27 08:27:33;;;;;;;3.10;2.20;;;6.40;43.20;;;;;;5029273;28;20197;-50
2023/02/27 08:29:59;;;;;;;5.53;2.33;;;6.40;43.10;;;;;;5026409;28;21114;-52
2023/02/27 08:32:25;;;;;;;4.70;2.37;;;6.40;43.10;;;;;;5025245;28;20485;-50
2023/02/27 08:34:50;;;;;;;4.30;2.40;;;6.40;43.20;;;;;;5036773;28;20427;-50
2023/02/27 08:37:16;;;;;;;2.80;2.53;;;6.30;43.00;;;;;;5031857;28;20205;-50
2023/02/27 08:39:42;;;;;;;2.37;1.60;;;6.40;43.70;;;;;;5031979;28;20263;-51
2023/02/27 08:42:09;;;;;;;4.20;2.47;;;6.40;43.20;;;;;;5044843;28;20212;-54
2023/02/27 08:44:34;;;;;;;6.67;2.77;;;6.50;43.10;;;;;;5028565;28;20433;-50
2023/02/27 08:47:00;;;;;;;4.93;2.50;;;6.70;43.10;;;;;;5023206;28;20201;-51
2023/02/27 08:49:25;;;;;;;2.30;2.10;;;6.90;43.10;;;;;;5020548;28;20201;-51
2023/02/27 08:51:52;;;;;;;2.43;2.13;;;7.00;42.90;;;;;;5028281;28;20189;-51
2023/02/27 08:54:18;;;;;;;2.17;1.83;;;7.00;43.00;;;;;;5028414;28;20431;-50
2023/02/27 08:56:44;;;;;;;2.97;2.00;;;7.20;43.20;;;;;;5026022;28;20483;-50
2023/02/27 08:59:09;;;;;;;3.13;2.90;;;7.10;42.30;;;;;;5022303;28;20515;-50
2023/02/27 09:01:35;;;;;;;2.37;2.17;;;7.10;42.10;;;;;;5019488;28;20232;-54
2023/02/27 09:04:02;;;;;;;4.10;2.50;;;7.30;41.60;;;;;;5031641;28;20791;-50
2023/02/27 09:06:28;;;;;;;2.53;2.33;;;7.30;41.00;;;;;;5025149;28;20193;-50
2023/02/27 09:08:55;;;;;;;3.43;2.20;;;7.20;40.90;;;;;;5020158;28;20495;-51
2023/02/27 09:11:21;;;;;;;2.07;1.93;;;7.40;41.00;;;;;;5025852;28;20228;-52
2023/02/27 09:13:46;;;;;;;3.20;2.50;;;7.50;41.40;;;;;;5019631;28;20436;-51
2023/02/27 09:16:12;;;;;;;3.17;2.57;;;7.50;41.40;;;;;;5029486;28;20432;-50
2023/02/27 09:18:37;;;;;;;2.23;1.77;;;7.70;41.20;;;;;;5021932;28;20221;-51
2023/02/27 09:21:03;;;;;;;4.70;2.67;;;7.80;40.60;;;;;;5027786;28;20203;-51
2023/02/27 09:23:29;;;;;;;3.10;2.27;;;7.70;39.70;;;;;;5016598;28;20194;-51
2023/02/27 09:25:54;;;;;;;2.63;1.80;;;7.40;39.70;;;;;;5042409;28;20205;-50
2023/02/27 09:28:20;;;;;;;3.30;2.10;;;7.50;39.70;;;;;;5031095;28;20220;-50
2023/02/27 09:30:46;;;;;;;3.20;2.30;;;7.50;39.70;;;;;;5030858;28;20236;-50
2023/02/27 09:33:12;;;;;;;2.20;2.00;;;7.80;40.40;;;;;;5030907;28;20193;-51
2023/02/27 09:35:37;;;;;;;2.00;1.87;;;8.00;40.10;;;;;;5019635;28;20230;-51
2023/02/27 09:38:03;;;;;;;3.53;2.43;;;8.20;39.70;;;;;;5030469;28;20487;-54
2023/02/27 09:40:38;;;;;;;2.67;1.90;;;8.50;39.30;;;;;;5028426;28;20287;-50
2023/02/27 09:43:14;;;;;;;3.63;2.33;;;7.80;37.80;;;;;;5027713;28;20570;-50
2023/02/27 09:45:40;;;;;;;3.00;1.90;;;7.90;38.60;;;;;;5024383;28;20849;-50
2023/02/27 09:48:22;;;;;;;1.80;1.70;;;8.20;38.20;;;;;;5029386;28;20923;-50
2023/02/27 09:50:51;;;;;;;3.57;1.90;;;8.20;36.80;;;;;;5030847;28;20428;-53
2023/02/27 09:53:19;;;;;;;2.20;1.90;;;7.90;36.70;;;;;;5045081;28;20502;-50
2023/02/27 09:55:45;;;;;;;2.47;1.90;;;7.80;36.60;;;;;;5030355;28;20432;-51
2023/02/27 09:58:32;;;;;;;3.00;2.00;;;7.70;36.60;;;;;;5030807;28;20439;-50
2023/02/27 10:01:13;;;;;;;3.23;2.10;;;7.90;36.90;;;;;;5030613;28;20444;-50
2023/02/27 10:03:51;;;;;;;2.80;1.97;;;8.20;36.80;;;;;;5030578;28;20432;-51
2023/02/27 10:06:38;;;;;;;2.30;2.00;;;8.20;36.40;;;;;;5030056;28;20419;-51
2023/02/27 10:09:41;;;;;;;2.17;2.07;;;8.40;35.60;;;;;;5029844;28;20450;-50
2023/02/27 10:12:25;;;;;;;2.17;1.80;;;8.20;35.10;;;;;;5030759;28;20432;-52
2023/02/27 10:14:56;;;;;;;3.13;1.80;;;8.40;35.80;;;;;;5028717;28;20430;-51
2023/02/27 10:17:25;;;;;;;2.17;1.80;;;8.80;35.50;;;;;;5030743;28;20939;-51
2023/02/27 10:19:53;;;;;;;2.10;1.70;;;9.10;35.20;;;;;;5030443;28;20515;-50
2023/02/27 10:22:29;;;;;;;2.00;1.77;;;9.40;33.80;;;;;;5030720;28;20459;-50
2023/02/27 10:25:22;;;;;;;2.37;2.17;;;9.30;33.40;;;;;;5029946;28;20424;-50
2023/02/27 10:27:52;;;;;;;1.73;1.60;;;9.20;33.20;;;;;;5027011;28;20444;-50
2023/02/27 10:30:22;;;;;;;2.83;1.63;;;9.10;33.20;;;;;;5031482;28;20482;-50
2023/02/27 10:32:53;;;;;;;1.73;1.60;;;9.60;34.00;;;;;;5034788;28;20488;-50
2023/02/27 10:35:32;;;;;;;2.00;1.80;;;9.50;33.30;;;;;;5036531;28;20543;-51
2023/02/27 10:38:06;;;;;;;3.20;1.50;;;9.50;33.10;;;;;;5030379;28;20874;-51
2023/02/27 10:40:35;;;;;;;1.60;1.50;;;9.60;32.70;;;;;;5030293;28;20841;-50
2023/02/27 10:43:02;;;;;;;2.33;1.80;;;9.70;32.60;;;;;;5027965;28;20428;-50
2023/02/27 10:45:27;;;;;;;2.33;1.90;;;9.70;32.20;;;;;;5029906;28;20478;-51
2023/02/27 10:47:54;;;;;;;2.07;1.47;;;9.80;31.90;;;;;;5022468;28;20472;-50
2023/02/27 10:50:31;;;;;;;1.87;1.37;;;10.10;32.10;;;;;;5026737;28;20201;-50
2023/02/27 10:53:02;;;;;;;1.70;1.60;;;10.10;31.30;;;;;;5027495;28;20439;-53
2023/02/27 10:55:34;;;;;;;2.10;1.90;;;10.10;30.60;;;;;;5028502;28;20506;-50
2023/02/27 10:58:02;;;;;;;1.57;1.30;;;10.30;30.20;;;;;;5026036;28;20440;-50
2023/02/27 11:00:44;;;;;;;2.30;1.60;;;10.40;31.00;;;;;;5020215;28;20480;-51
2023/02/27 11:03:22;;;;;;;2.00;1.63;;;10.20;29.90;;;;;;5020785;28;20964;-51
2023/02/27 11:05:57;;;;;;;2.70;1.60;;;10.20;30.00;;;;;;5030730;28;20447;-52
2023/02/27 11:08:28;;;;;;;1.90;1.67;;;10.40;30.10;;;;;;5020197;28;21113;-52
2023/02/27 11:10:59;;;;;;;2.07;1.57;;;10.80;30.10;;;;;;5031022;28;20808;-50
2023/02/27 11:13:28;;;;;;;1.97;1.77;;;10.80;29.50;;;;;;5022661;28;20452;-51
2023/02/27 11:16:05;;;;;;;1.83;1.60;;;10.70;29.20;;;;;;5025430;28;21017;-53
2023/02/27 11:18:33;;;;;;;2.60;1.63;;;10.80;29.80;;;;;;5032040;28;20451;-51
2023/02/27 11:21:22;;;;;;;1.77;1.60;;;11.00;29.60;;;;;;5024347;28;20450;-50
2023/02/27 11:23:50;;;;;;;2.07;1.50;;;10.90;29.30;;;;;;5025084;28;20526;-50
2023/02/27 11:26:22;;;;;;;1.90;1.20;;;10.80;29.10;;;;;;5042391;28;20751;-53
2023/02/27 11:29:04;;;;;;;2.23;1.40;;;10.60;28.90;;;;;;5029980;28;21920;-53
2023/02/27 11:31:32;;;;;;;2.73;1.80;;;10.70;29.70;;;;;;5033567;28;20513;-53
2023/02/27 11:33:59;;;;;;;2.03;1.60;;;11.00;29.60;;;;;;5037416;28;20429;-53
2023/02/27 11:36:46;;;;;;;1.80;1.63;;;11.10;28.80;;;;;;5035016;28;20497;-51
2023/02/27 11:39:23;;;;;;;1.83;1.70;;;11.20;29.40;;;;;;5038123;28;20494;-52
2023/02/27 11:41:50;;;;;;;2.83;1.90;;;11.20;29.40;;;;;;5031573;28;20484;-51
2023/02/27 11:44:19;;;;;;;1.30;1.20;;;11.30;29.00;;;;;;5035002;28;20439;-52
2023/02/27 11:46:45;;;;;;;2.13;2.03;;;10.70;28.80;;;;;;5035671;28;20546;-53
2023/02/27 11:49:14;;;;;;;2.20;1.77;;;10.30;29.10;;;;;;5027301;28;20443;-50
2023/02/27 11:52:01;;;;;;;3.70;2.00;;;9.90;29.90;;;;;;5017028;28;20448;-52
2023/02/27 11:54:31;;;;;;;2.50;2.00;;;10.10;30.10;;;;;;5038251;28;20465;-56
2023/02/27 11:57:11;;;;;;;1.80;1.70;;;9.70;30.60;;;;;;5030640;28;20448;-52
2023/02/27 11:59:46;;;;;;;2.67;1.60;;;9.40;31.10;;;;;;5030118;28;21029;-53
2023/02/27 12:02:18;;;;;;;2.30;1.60;;;9.40;31.80;;;;;;5037422;28;20458;-52
2023/02/27 12:04:52;;;;;;;3.10;1.80;;;9.60;32.90;;;;;;5045726;28;20942;-50
2023/02/27 12:07:27;;;;;;;1.67;1.30;;;10.10;30.50;;;;;;5021730;28;20419;-49
2023/02/27 12:10:15;;;;;;;1.93;1.70;;;10.20;30.40;;;;;;5042007;28;20438;-50
2023/02/27 12:13:10;;;;;;;2.90;2.07;;;10.10;30.00;;;;;;5042256;28;20501;-50
2023/02/27 12:15:38;;;;;;;2.20;2.00;;;10.20;30.30;;;;;;5038245;28;20882;-49
2023/02/27 12:18:24;;;;;;;1.67;1.50;;;10.40;30.20;;;;;;5035924;28;21019;-51
2023/02/27 12:21:14;;;;;;;1.57;1.40;;;10.20;30.30;;;;;;5026990;28;20448;-49
2023/02/27 12:24:09;;;;;;;1.90;1.53;;;10.40;30.30;;;;;;5034556;28;20443;-53
2023/02/27 12:26:42;;;;;;;1.77;1.67;;;10.70;30.20;;;;;;5010273;28;21391;-49
2023/02/27 12:29:29;;;;;;;2.27;1.60;;;10.70;30.20;;;;;;5035682;28;20466;-50
2023/02/27 12:32:04;;;;;;;3.03;1.93;;;10.70;29.90;;;;;;5027560;28;20575;-50
2023/02/27 12:34:50;;;;;;;1.67;1.50;;;10.80;30.00;;;;;;5042344;28;20444;-50
2023/02/27 12:37:28;;;;;;;2.23;1.67;;;10.80;29.30;;;;;;5032481;28;20459;-49
2023/02/27 12:39:57;;;;;;;1.90;1.70;;;10.40;29.20;;;;;;5032954;28;20859;-51
2023/02/27 12:42:26;;;;;;;1.73;1.40;;;10.50;30.00;;;;;;5029056;28;20497;-51
2023/02/27 12:45:26;;;;;;;1.87;1.77;;;10.70;29.60;;;;;;5023663;28;20483;-52
2023/02/27 12:48:08;;;;;;;3.37;1.80;;;10.70;28.40;;;;;;5019364;28;20451;-55
2023/02/27 12:51:18;;;;;;;1.53;1.43;;;10.70;28.50;;;;;;5028292;28;20444;-58
2023/02/27 12:54:02;;;;;;;2.03;1.60;;;10.70;28.60;;;;;;4988053;28;20453;-54
2023/02/27 12:56:55;;;;;;;3.93;1.97;;;10.80;29.00;;;;;;4979356;28;20458;-54
2023/02/27 13:00:00;;;;;;;6.13;1.97;;;10.90;28.90;;;;;;5015708;28;20487;-51
2023/02/27 13:02:46;;;;;;;1.70;1.60;;;10.60;29.10;;;;;;5038526;28;20796;-55
2023/02/27 13:05:50;;;;;;;1.77;1.47;;;10.40;29.40;;;;;;5019695;28;20447;-55
2023/02/27 13:08:42;;;;;;;1.90;1.50;;;10.70;29.80;;;;;;5023788;28;20455;-54
2023/02/27 13:11:31;;;;;;;1.57;1.47;;;11.00;29.40;;;;;;5017217;28;20496;-54
2023/02/27 13:14:41;;;;;;;1.40;1.30;;;10.80;28.80;;;;;;5026059;28;20463;-54
2023/02/27 13:17:24;;;;;;;1.87;1.77;;;10.80;29.20;;;;;;5031340;28;20452;-54
2023/02/27 13:20:14;;;;;;;2.13;1.77;;;10.90;29.20;;;;;;5027486;28;20527;-54
2023/02/27 13:22:53;;;;;;;1.60;1.50;;;11.10;29.50;;;;;;5024029;28;20441;-54